createdAt,value
2018-06-27T00:00:57.627Z,59.50
2018-06-27T00:03:25.886Z,59.50
2018-06-27T00:05:54.122Z,59.40
2018-06-27T00:08:22.338Z,59.60
2018-06-27T00:10:50.574Z,59.90
2018-06-27T00:13:18.778Z,59.80
2018-06-27T00:15:46.977Z,60.00
2018-06-27T00:18:15.180Z,60.00
2018-06-27T00:20:43.402Z,59.90
2018-06-27T00:23:11.628Z,59.80
2018-06-27T00:25:39.844Z,60.00
2018-06-27T00:28:08.032Z,60.10
2018-06-27T00:30:36.327Z,60.40
2018-06-27T00:33:04.539Z,60.50
2018-06-27T00:35:32.734Z,60.50
2018-06-27T00:38:00.975Z,60.80
2018-06-27T00:40:29.205Z,61.00
2018-06-27T00:42:57.424Z,61.20
2018-06-27T00:45:25.650Z,61.10
2018-06-27T00:47:53.855Z,61.70
2018-06-27T00:50:22.079Z,61.70
2018-06-27T00:52:50.341Z,61.60
2018-06-27T00:55:18.523Z,61.90
2018-06-27T00:57:46.715Z,62.10
2018-06-27T01:00:14.951Z,62.10
2018-06-27T01:02:43.153Z,62.00
2018-06-27T01:05:11.400Z,62.30
2018-06-27T01:07:39.622Z,62.60
2018-06-27T01:10:07.901Z,62.90
2018-06-27T01:12:36.175Z,62.90
2018-06-27T01:15:05.184Z,63.50
2018-06-27T01:17:33.553Z,63.80
2018-06-27T01:20:01.845Z,63.70
2018-06-27T01:22:30.236Z,63.90
2018-06-27T01:24:58.642Z,64.00
2018-06-27T01:27:26.841Z,63.90
2018-06-27T01:29:55.082Z,63.90
2018-06-27T01:32:23.305Z,63.80
2018-06-27T01:34:51.603Z,63.70
2018-06-27T01:37:19.826Z,63.70
2018-06-27T01:39:48.054Z,64.00
2018-06-27T01:42:16.305Z,63.90
2018-06-27T01:44:44.532Z,64.00
2018-06-27T01:47:12.778Z,64.10
2018-06-27T01:49:41.043Z,64.20
2018-06-27T01:52:09.318Z,64.20
2018-06-27T01:54:37.550Z,63.90
2018-06-27T01:57:05.997Z,64.20
2018-06-27T01:59:34.266Z,64.20
2018-06-27T02:02:02.555Z,64.40
2018-06-27T02:04:30.816Z,64.90
2018-06-27T02:06:59.054Z,64.90
2018-06-27T02:09:27.297Z,64.80
2018-06-27T02:11:55.533Z,65.30
2018-06-27T02:14:23.798Z,64.70
2018-06-27T02:16:52.003Z,64.80
2018-06-27T02:19:20.221Z,65.00
2018-06-27T02:21:48.427Z,65.20
2018-06-27T02:26:44.654Z,65.90
2018-06-27T02:29:12.965Z,66.20
2018-06-27T02:31:41.398Z,66.50
2018-06-27T02:34:09.765Z,67.10
2018-06-27T02:36:37.985Z,67.80
2018-06-27T02:39:08.204Z,67.70
2018-06-27T02:46:32.631Z,68.00
2018-06-27T02:49:00.878Z,67.60
2018-06-27T02:51:29.114Z,67.80
2018-06-27T02:53:57.392Z,67.70
2018-06-27T02:56:25.620Z,67.70
2018-06-27T02:58:53.844Z,67.70
2018-06-27T03:01:22.237Z,67.40
2018-06-27T03:03:50.496Z,67.20
2018-06-27T03:06:18.739Z,67.40
2018-06-27T03:08:46.963Z,67.20
2018-06-27T03:11:15.256Z,67.20
2018-06-27T03:13:43.507Z,67.10
2018-06-27T03:16:11.724Z,66.90
2018-06-27T03:18:49.954Z,67.10
2018-06-27T03:23:53.195Z,67.40
2018-06-27T03:26:21.460Z,67.50
2018-06-27T03:28:49.753Z,67.20
2018-06-27T03:31:18.426Z,67.10
2018-06-27T03:33:46.676Z,67.10
2018-06-27T03:36:15.315Z,67.80
2018-06-27T03:38:43.577Z,67.90
2018-06-27T03:41:11.787Z,67.80
2018-06-27T03:43:40.026Z,67.90
2018-06-27T03:46:08.238Z,67.80
2018-06-27T03:48:36.539Z,67.70
2018-06-27T03:51:04.762Z,67.50
2018-06-27T03:53:39.350Z,67.10
2018-06-27T03:56:08.401Z,67.00
2018-06-27T03:58:37.486Z,66.90
2018-06-27T04:01:06.878Z,66.60
2018-06-27T04:03:35.115Z,66.50
2018-06-27T04:06:03.405Z,66.30
2018-06-27T04:08:31.621Z,66.30
2018-06-27T04:10:59.850Z,66.00
2018-06-27T04:13:28.168Z,65.60
2018-06-27T04:15:56.306Z,65.70
2018-06-27T04:18:24.530Z,65.50
2018-06-27T04:20:52.774Z,65.60
2018-06-27T04:23:21.025Z,65.90
2018-06-27T04:25:49.258Z,65.80
2018-06-27T04:28:17.545Z,65.80
2018-06-27T04:30:45.809Z,66.10
2018-06-27T04:33:14.027Z,65.00
2018-06-27T04:35:42.290Z,64.80
2018-06-27T04:38:10.485Z,64.90
2018-06-27T04:40:38.753Z,64.50
2018-06-27T04:43:07.204Z,65.00
2018-06-27T04:45:35.466Z,64.60
2018-06-27T04:48:03.724Z,64.60
2018-06-27T04:50:32.836Z,64.10
2018-06-27T04:53:01.095Z,64.30
2018-06-27T04:55:29.518Z,63.60
2018-06-27T04:57:57.768Z,63.30
2018-06-27T05:00:26.058Z,62.70
2018-06-27T05:05:22.364Z,61.40
2018-06-27T05:07:50.570Z,61.20
2018-06-27T05:10:19.043Z,60.20
2018-06-27T05:12:47.412Z,59.90
2018-06-27T05:15:15.893Z,59.20
2018-06-27T05:17:44.096Z,57.80
2018-06-27T05:20:12.279Z,56.60
2018-06-27T05:22:40.500Z,54.80
2018-06-27T05:25:08.713Z,53.20
2018-06-27T05:27:37.135Z,52.40
2018-06-27T05:30:05.207Z,51.70
2018-06-27T05:32:33.675Z,49.60
2018-06-27T05:35:01.859Z,50.40
2018-06-27T05:37:30.118Z,50.00
2018-06-27T05:39:58.336Z,48.10
2018-06-27T05:42:26.550Z,47.50
2018-06-27T05:44:54.760Z,46.10
2018-06-27T05:47:22.959Z,46.80
2018-06-27T05:49:51.186Z,47.50
2018-06-27T05:52:19.406Z,46.40
2018-06-27T05:54:51.850Z,45.70
2018-06-27T05:57:20.086Z,44.40
2018-06-27T05:59:48.338Z,44.10
2018-06-27T06:02:16.537Z,44.10
2018-06-27T06:04:45.197Z,43.80
2018-06-27T06:07:13.502Z,42.20
2018-06-27T06:09:41.733Z,41.20
2018-06-27T06:12:09.935Z,41.20
2018-06-27T06:14:38.194Z,40.70
2018-06-27T06:17:06.467Z,41.90
2018-06-27T06:19:34.698Z,41.10
2018-06-27T06:22:02.926Z,40.60
2018-06-27T06:24:36.950Z,40.60
2018-06-27T06:27:05.624Z,41.00
2018-06-27T06:29:33.897Z,40.80
2018-06-27T06:32:02.172Z,40.00
2018-06-27T06:34:30.357Z,39.80
2018-06-27T06:36:58.602Z,40.50
2018-06-27T06:39:27.126Z,41.30
2018-06-27T06:41:55.359Z,43.20
2018-06-27T06:44:23.582Z,43.20
2018-06-27T06:46:51.851Z,43.40
2018-06-27T06:51:48.144Z,42.40
2018-06-27T06:54:16.374Z,42.20
2018-06-27T06:56:44.566Z,40.00
2018-06-27T06:59:13.098Z,41.10
2018-06-27T07:01:41.355Z,40.60
2018-06-27T07:04:09.688Z,40.70
2018-06-27T07:06:37.939Z,39.90
2018-06-27T07:09:09.097Z,36.50
2018-06-27T07:11:37.346Z,37.00
2018-06-27T07:14:06.149Z,37.30
2018-06-27T07:16:34.390Z,37.70
2018-06-27T07:19:02.606Z,37.40
2018-06-27T07:21:31.475Z,35.20
2018-06-27T07:23:59.760Z,35.80
2018-06-27T07:26:28.488Z,35.30
2018-06-27T07:28:56.706Z,36.30
2018-06-27T07:31:25.074Z,36.00
2018-06-27T07:33:53.290Z,36.80
2018-06-27T07:36:21.579Z,36.00
2018-06-27T07:38:49.951Z,36.00
2018-06-27T07:41:18.237Z,36.20
2018-06-27T07:43:46.494Z,36.00
2018-06-27T07:46:14.796Z,36.20
2018-06-27T07:48:43.059Z,36.30
2018-06-27T07:51:11.342Z,36.60
2018-06-27T07:53:39.679Z,37.10
2018-06-27T07:56:08.088Z,36.50
2018-06-27T07:58:36.358Z,36.20
2018-06-27T08:01:04.604Z,36.80
2018-06-27T08:03:33.029Z,35.90
2018-06-27T08:06:02.271Z,36.30
2018-06-27T08:08:30.504Z,35.30
2018-06-27T08:10:58.758Z,34.60
2018-06-27T08:13:27.032Z,33.90
2018-06-27T08:15:55.287Z,35.50
2018-06-27T08:18:23.511Z,34.60
2018-06-27T08:20:51.774Z,34.90
2018-06-27T08:23:20.225Z,35.60
2018-06-27T08:25:53.300Z,35.00
2018-06-27T08:28:23.114Z,33.00
2018-06-27T08:30:51.443Z,30.60
2018-06-27T08:33:19.699Z,31.70
2018-06-27T08:35:47.971Z,31.70
2018-06-27T08:38:16.194Z,30.00
2018-06-27T08:40:44.448Z,31.10
2018-06-27T08:43:12.715Z,31.70
2018-06-27T08:45:40.958Z,29.70
2018-06-27T08:48:09.936Z,30.60
2018-06-27T08:50:38.195Z,32.50
2018-06-27T08:53:06.706Z,34.40
2018-06-27T08:55:35.307Z,34.70
2018-06-27T08:58:03.520Z,35.30
2018-06-27T09:00:31.736Z,37.70
2018-06-27T09:02:59.991Z,38.60
2018-06-27T09:05:28.198Z,40.50
2018-06-27T09:07:56.498Z,42.30
2018-06-27T09:10:24.694Z,44.30
2018-06-27T09:12:52.898Z,47.20
2018-06-27T09:15:21.111Z,48.70
2018-06-27T09:17:49.412Z,48.90
2018-06-27T09:20:17.679Z,49.20
2018-06-27T09:22:46.411Z,47.30
2018-06-27T09:25:14.611Z,46.70
2018-06-27T09:27:42.847Z,44.70
2018-06-27T09:30:11.227Z,41.00
2018-06-27T09:32:39.523Z,38.80
2018-06-27T09:35:07.737Z,36.70
2018-06-27T09:37:35.950Z,38.30
2018-06-27T09:40:04.955Z,36.90
2018-06-27T09:42:33.129Z,35.60
2018-06-27T09:45:01.418Z,34.10
2018-06-27T09:47:29.719Z,33.80
2018-06-27T09:52:25.975Z,30.90
2018-06-27T09:54:57.282Z,31.90
2018-06-27T09:57:25.808Z,29.70
2018-06-27T09:59:54.038Z,29.60
2018-06-27T10:02:22.669Z,28.50
2018-06-27T10:04:51.252Z,27.40
2018-06-27T10:07:19.717Z,27.90
2018-06-27T10:09:48.004Z,29.60
2018-06-27T10:12:16.232Z,30.80
2018-06-27T10:14:44.531Z,30.10
2018-06-27T10:17:12.792Z,29.80
2018-06-27T10:19:41.051Z,29.30
2018-06-27T10:22:09.302Z,31.10
2018-06-27T10:24:37.783Z,32.70
2018-06-27T10:27:06.059Z,34.80
2018-06-27T10:29:34.271Z,34.60
2018-06-27T10:32:02.539Z,34.70
2018-06-27T10:34:30.863Z,32.20
2018-06-27T10:36:59.077Z,30.00
2018-06-27T10:39:27.282Z,28.90
2018-06-27T10:41:55.507Z,28.40
2018-06-27T10:44:23.737Z,29.10
2018-06-27T10:46:51.991Z,27.70
2018-06-27T10:49:20.218Z,28.40
2018-06-27T10:51:48.470Z,26.70
2018-06-27T10:54:16.706Z,25.00
2018-06-27T10:56:44.940Z,26.20
2018-06-27T10:59:13.182Z,27.50
2018-06-27T11:01:41.455Z,28.20
2018-06-27T11:04:09.685Z,28.40
2018-06-27T11:06:37.890Z,28.60
2018-06-27T11:09:07.694Z,29.30
2018-06-27T11:11:35.928Z,28.40
2018-06-27T11:14:04.233Z,28.70
2018-06-27T11:16:32.556Z,28.70
2018-06-27T11:21:28.843Z,31.40
2018-06-27T11:23:57.115Z,31.70
2018-06-27T11:26:25.366Z,30.60
2018-06-27T11:28:53.731Z,29.80
2018-06-27T11:31:21.943Z,32.70
2018-06-27T11:33:50.450Z,32.90
2018-06-27T11:36:18.660Z,33.00
2018-06-27T11:38:46.994Z,33.00
2018-06-27T11:41:15.147Z,33.60
2018-06-27T11:43:43.360Z,33.60
2018-06-27T11:46:11.589Z,33.40
2018-06-27T11:48:39.802Z,33.30
2018-06-27T11:51:08.010Z,31.60
2018-06-27T11:53:36.323Z,31.30
2018-06-27T11:56:04.639Z,32.20
2018-06-27T11:58:32.927Z,31.70
2018-06-27T12:01:01.187Z,30.60
2018-06-27T12:03:29.483Z,30.10
2018-06-27T12:05:57.743Z,29.90
2018-06-27T12:08:26.031Z,29.70
2018-06-27T12:10:54.263Z,28.40
2018-06-27T12:13:22.631Z,28.00
2018-06-27T12:15:51.060Z,27.50
2018-06-27T12:18:19.321Z,27.00
2018-06-27T12:20:47.514Z,27.20
2018-06-27T12:23:15.764Z,27.60
2018-06-27T12:25:43.972Z,28.20
2018-06-27T12:28:12.221Z,28.20
2018-06-27T12:30:40.683Z,27.60
2018-06-27T12:33:09.048Z,27.30
2018-06-27T12:35:37.264Z,27.80
2018-06-27T12:38:05.477Z,27.20
2018-06-27T12:40:33.771Z,26.30
2018-06-27T12:43:02.187Z,26.40
2018-06-27T12:45:31.451Z,25.10
2018-06-27T12:47:59.926Z,25.10
2018-06-27T12:50:28.313Z,23.90
2018-06-27T12:52:56.646Z,24.30
2018-06-27T12:55:24.922Z,24.70
2018-06-27T12:57:53.126Z,25.40
2018-06-27T13:00:21.624Z,24.90
2018-06-27T13:02:49.930Z,23.80
2018-06-27T13:05:18.158Z,22.90
2018-06-27T13:07:46.389Z,22.50
2018-06-27T13:10:14.630Z,22.80
2018-06-27T13:12:42.829Z,22.40
2018-06-27T13:15:11.026Z,22.40
2018-06-27T13:17:39.598Z,22.50
2018-06-27T13:20:07.878Z,21.80
2018-06-27T13:22:36.422Z,22.30
2018-06-27T13:25:04.639Z,22.90
2018-06-27T13:27:32.974Z,21.40
2018-06-27T13:30:01.599Z,21.20
2018-06-27T13:32:29.877Z,22.10
2018-06-27T13:34:58.154Z,22.60
2018-06-27T13:37:26.285Z,22.30
2018-06-27T13:39:54.532Z,22.70
2018-06-27T13:42:22.755Z,22.70
2018-06-27T13:44:51.288Z,22.60
2018-06-27T13:47:19.610Z,24.90
2018-06-27T13:52:16.403Z,26.80
2018-06-27T13:54:50.187Z,27.60
2018-06-27T13:57:18.565Z,28.00
2018-06-27T13:59:46.783Z,27.60
2018-06-27T14:02:15.110Z,28.00
2018-06-27T14:07:11.316Z,27.10
2018-06-27T14:09:39.673Z,27.00
2018-06-27T14:12:08.006Z,26.80
2018-06-27T14:14:36.288Z,26.80
2018-06-27T14:17:04.719Z,27.00
2018-06-27T14:19:33.211Z,27.00
2018-06-27T14:22:01.418Z,26.80
2018-06-27T14:24:29.948Z,26.20
2018-06-27T14:26:58.026Z,26.10
2018-06-27T14:29:26.258Z,26.60
2018-06-27T14:31:54.471Z,27.10
2018-06-27T14:34:22.925Z,27.10
2018-06-27T14:36:51.118Z,27.30
2018-06-27T14:39:19.382Z,27.50
2018-06-27T14:41:47.789Z,27.00
2018-06-27T14:44:16.907Z,26.10
2018-06-27T14:46:45.147Z,26.70
2018-06-27T14:49:13.428Z,25.60
2018-06-27T14:51:41.631Z,26.00
2018-06-27T14:54:09.903Z,25.90
2018-06-27T14:56:38.209Z,25.50
2018-06-27T14:59:06.400Z,25.80
2018-06-27T15:01:34.632Z,26.00
2018-06-27T15:04:02.903Z,26.40
2018-06-27T15:06:31.164Z,26.40
2018-06-27T15:08:59.507Z,26.20
2018-06-27T15:11:27.747Z,26.10
2018-06-27T15:13:55.987Z,26.30
2018-06-27T15:16:24.264Z,26.60
2018-06-27T15:18:52.467Z,26.60
2018-06-27T15:21:20.730Z,26.40
2018-06-27T15:23:51.956Z,26.60
2018-06-27T15:26:20.146Z,26.60
2018-06-27T15:28:48.386Z,27.40
2018-06-27T15:31:16.678Z,26.90
2018-06-27T15:33:44.872Z,26.00
2018-06-27T15:36:13.087Z,25.30
2018-06-27T15:38:41.292Z,25.30
2018-06-27T15:41:09.566Z,25.50
2018-06-27T15:43:37.806Z,26.60
2018-06-27T15:46:06.030Z,25.90
2018-06-27T15:48:34.281Z,25.70
2018-06-27T15:51:02.467Z,25.30
2018-06-27T15:53:30.716Z,24.80
2018-06-27T15:55:58.921Z,24.80
2018-06-27T15:58:27.103Z,25.80
2018-06-27T16:00:55.395Z,25.60
2018-06-27T16:03:23.628Z,26.10
2018-06-27T16:05:51.983Z,25.80
2018-06-27T16:08:20.234Z,24.60
2018-06-27T16:10:48.511Z,24.50
2018-06-27T16:13:16.745Z,25.10
2018-06-27T16:15:45.042Z,25.10
2018-06-27T16:18:13.310Z,25.20
2018-06-27T16:20:41.595Z,24.80
2018-06-27T16:23:09.887Z,24.70
2018-06-27T16:25:38.149Z,24.40
2018-06-27T16:28:06.683Z,24.60
2018-06-27T16:30:34.886Z,24.50
2018-06-27T16:33:03.128Z,25.20
2018-06-27T16:35:31.407Z,24.30
2018-06-27T16:37:59.650Z,25.80
2018-06-27T16:40:28.221Z,26.80
2018-06-27T16:42:56.706Z,26.90
2018-06-27T16:45:25.051Z,27.30
2018-06-27T16:47:53.245Z,27.80
2018-06-27T16:50:21.525Z,28.20
2018-06-27T16:52:49.759Z,28.50
2018-06-27T16:55:18.044Z,28.70
2018-06-27T16:57:46.257Z,28.60
2018-06-27T17:00:14.515Z,28.10
2018-06-27T17:02:42.910Z,28.30
2018-06-27T17:05:11.174Z,28.10
2018-06-27T17:07:39.442Z,27.10
2018-06-27T17:10:07.749Z,26.90
2018-06-27T17:12:35.900Z,26.90
2018-06-27T17:15:04.639Z,26.90
2018-06-27T17:17:33.314Z,26.70
2018-06-27T17:20:01.718Z,26.80
2018-06-27T17:22:29.981Z,27.00
2018-06-27T17:24:58.188Z,26.70
2018-06-27T17:27:27.299Z,26.10
2018-06-27T17:32:23.436Z,25.80
2018-06-27T17:34:51.650Z,25.90
2018-06-27T17:37:19.869Z,26.10
2018-06-27T17:39:48.078Z,26.20
2018-06-27T17:42:16.326Z,26.50
2018-06-27T17:44:44.924Z,26.50
2018-06-27T17:47:13.153Z,26.40
2018-06-27T17:49:41.667Z,25.70
2018-06-27T17:52:09.883Z,25.80
2018-06-27T17:54:38.280Z,25.50
2018-06-27T17:57:06.557Z,25.60
2018-06-27T17:59:34.834Z,26.00
2018-06-27T18:02:03.027Z,25.80
2018-06-27T18:04:31.401Z,25.60
2018-06-27T18:06:59.644Z,25.70
2018-06-27T18:09:27.879Z,25.60
2018-06-27T18:11:56.231Z,25.90
2018-06-27T18:14:24.439Z,26.10
2018-06-27T18:16:53.373Z,26.40
2018-06-27T18:19:21.891Z,26.50
2018-06-27T18:21:50.119Z,26.60
2018-06-27T18:24:18.477Z,26.80
2018-06-27T18:26:46.718Z,26.90
2018-06-27T18:29:15.179Z,27.10
2018-06-27T18:31:43.311Z,27.10
2018-06-27T18:34:11.622Z,27.10
2018-06-27T18:36:40.036Z,27.20
2018-06-27T18:39:09.436Z,27.30
2018-06-27T18:41:37.719Z,27.40
2018-06-27T18:44:06.210Z,27.50
2018-06-27T18:46:34.511Z,27.40
2018-06-27T18:49:03.422Z,27.70
2018-06-27T18:51:31.805Z,27.90
2018-06-27T18:54:00.037Z,28.10
2018-06-27T18:56:28.310Z,28.10
2018-06-27T18:58:56.795Z,27.90
2018-06-27T19:01:25.071Z,28.00
2018-06-27T19:03:53.298Z,28.30
2018-06-27T19:06:21.602Z,28.60
2018-06-27T19:08:50.243Z,29.30
2018-06-27T19:11:18.469Z,29.90
2018-06-27T19:18:43.822Z,32.10
2018-06-27T19:21:12.350Z,31.70
2018-06-27T19:23:40.595Z,32.70
2018-06-27T19:28:37.470Z,32.50
2018-06-27T19:31:06.075Z,32.30
2018-06-27T19:33:34.455Z,31.40
2018-06-27T19:36:02.721Z,30.60
2018-06-27T19:38:30.963Z,31.30
2018-06-27T19:40:59.585Z,29.80
2018-06-27T19:43:27.780Z,29.70
2018-06-27T19:45:55.990Z,29.60
2018-06-27T19:48:24.238Z,29.80
2018-06-27T19:50:52.492Z,30.00
2018-06-27T19:53:20.730Z,30.10
2018-06-27T19:55:49.027Z,30.00
2018-06-27T19:58:17.283Z,30.30
2018-06-27T20:00:45.522Z,30.60
2018-06-27T20:03:15.664Z,30.90
2018-06-27T20:05:44.246Z,31.00
2018-06-27T20:08:12.581Z,31.50
2018-06-27T20:13:08.773Z,31.50
2018-06-27T20:15:37.042Z,31.90
2018-06-27T20:18:05.446Z,31.80
2018-06-27T20:20:33.696Z,32.10
2018-06-27T20:23:08.606Z,32.10
2018-06-27T20:25:36.866Z,32.10
2018-06-27T20:28:05.222Z,32.10
2018-06-27T20:30:33.454Z,32.50
2018-06-27T20:33:01.747Z,32.90
2018-06-27T20:35:30.110Z,32.90
2018-06-27T20:37:58.346Z,33.30
2018-06-27T20:40:26.580Z,33.10
2018-06-27T20:42:54.794Z,33.40
2018-06-27T20:45:23.312Z,33.80
2018-06-27T20:47:51.554Z,33.90
2018-06-27T20:50:19.785Z,34.30
2018-06-27T20:52:48.000Z,34.60
2018-06-27T20:55:16.212Z,34.90
2018-06-27T20:57:44.441Z,35.00
2018-06-27T21:00:12.659Z,35.00
2018-06-27T21:02:40.957Z,35.00
2018-06-27T21:05:09.242Z,35.00
2018-06-27T21:07:37.480Z,35.00
2018-06-27T21:10:05.999Z,35.30
2018-06-27T21:12:34.338Z,35.40
2018-06-27T21:15:03.304Z,35.20
2018-06-27T21:17:31.527Z,35.30
2018-06-27T21:19:59.737Z,35.40
2018-06-27T21:22:27.929Z,35.40
2018-06-27T21:24:56.126Z,35.70
2018-06-27T21:27:24.433Z,35.80
2018-06-27T21:29:52.656Z,35.90
2018-06-27T21:32:21.002Z,36.10
2018-06-27T21:34:49.259Z,36.60
2018-06-27T21:37:17.839Z,36.70
2018-06-27T21:39:46.091Z,36.40
2018-06-27T21:42:14.362Z,36.70
2018-06-27T21:44:42.570Z,37.20
2018-06-27T21:47:10.858Z,37.00
2018-06-27T21:49:39.051Z,37.30
2018-06-27T21:52:07.262Z,37.20
2018-06-27T21:54:35.461Z,37.50
2018-06-27T21:57:03.758Z,37.30
2018-06-27T21:59:34.978Z,37.40
2018-06-27T22:02:03.512Z,37.30
2018-06-27T22:04:31.718Z,37.40
2018-06-27T22:06:59.906Z,37.80
2018-06-27T22:09:28.179Z,37.50
2018-06-27T22:11:56.419Z,37.90
2018-06-27T22:14:24.632Z,38.00
2018-06-27T22:16:52.861Z,38.10
2018-06-27T22:19:21.101Z,38.20
2018-06-27T22:21:49.456Z,38.10
2018-06-27T22:24:17.582Z,38.00
2018-06-27T22:26:45.802Z,38.20
2018-06-27T22:29:14.010Z,38.20
2018-06-27T22:31:42.346Z,38.30
2018-06-27T22:34:10.821Z,38.40
2018-06-27T22:36:39.014Z,38.40
2018-06-27T22:39:09.291Z,38.40
2018-06-27T22:41:37.622Z,38.50
2018-06-27T22:44:05.935Z,38.70
2018-06-27T22:46:34.469Z,38.80
2018-06-27T22:49:02.939Z,38.70
2018-06-27T22:51:31.230Z,39.00
2018-06-27T22:53:59.623Z,39.20
2018-06-27T22:58:55.914Z,39.10
2018-06-27T23:01:24.126Z,39.20
2018-06-27T23:03:52.355Z,39.40
2018-06-27T23:06:20.551Z,39.50
2018-06-27T23:08:48.751Z,39.50
2018-06-27T23:11:17.021Z,39.60
2018-06-27T23:13:45.209Z,40.00
2018-06-27T23:16:13.382Z,40.10
2018-06-27T23:18:41.598Z,40.10
2018-06-27T23:21:09.834Z,40.20
2018-06-27T23:23:38.003Z,40.30
2018-06-27T23:26:06.225Z,40.30
2018-06-27T23:28:34.414Z,40.30
2018-06-27T23:31:02.622Z,40.30
2018-06-27T23:33:30.862Z,40.30
2018-06-27T23:35:59.081Z,41.10
2018-06-27T23:38:27.266Z,41.30
2018-06-27T23:40:55.487Z,41.40
2018-06-27T23:43:23.683Z,41.40
2018-06-27T23:45:51.946Z,41.50
2018-06-27T23:48:20.145Z,41.70
2018-06-27T23:50:48.526Z,41.90
2018-06-27T23:53:16.803Z,42.30
2018-06-27T23:55:45.067Z,42.20
2018-06-27T23:58:13.326Z,42.40
